Sky Ever — DSQX9 — position and weather

sailwx.info

Track history (hours):
 
Tides and Currents Weather Stations Pressure Air Temp Water Temp Dewpoint Dewpoint Depression Visibility Wind Speed Wind Dir Waves Ship Positions

Sky Ever

Last reported at 2014-Dec-08 12:08 UTC. Time now 2014-Dec-20 11:34 UTC.
Position N 34°36' E 134°54'.
Warning: this ship's position is 11 days out of date.

Length 76 m; draft 3.6 m.

Type: Cargo ship. MMSI: 441751000.

Date/timePositionNaut miles runAvg speedWind from/ knotsBaromVisibWave heightAir tempDewpointWater temp
2014-Dec-08 12:08N 34°36' E 134°54'610.3
2014-Dec-08 11:33N 34°37' E 135°01'10 9.7
2014-Dec-08 10:33N 34°35' E 135°13'10 9.3
2014-Dec-08 09:31N 34°33' E 135°24'2 0.4
2014-Dec-08 04:32N 34°34' E 135°26'0 0.1
2014-Dec-08 03:23N 34°33' E 135°26'3 2.7
2014-Dec-08 02:22N 34°34' E 135°23'0 0.0
2014-Dec-08 01:28N 34°34' E 135°23'0 0.0
2014-Dec-08 00:28N 34°34' E 135°23'0 0.0
2014-Dec-07 23:28N 34°34' E 135°23'0 0.0
2014-Dec-07 21:16N 34°34' E 135°23'0 0.1
2014-Dec-07 20:22N 34°34' E 135°23'0 0.0
2014-Dec-07 18:16N 34°34' E 135°23'0 0.0
2014-Dec-07 17:10N 34°34' E 135°23'0 0.0
2014-Dec-07 16:28N 34°34' E 135°23'0 0.0
2014-Dec-07 15:28N 34°34' E 135°23'0 0.0
2014-Dec-07 14:22N 34°34' E 135°23'0 0.0
2014-Dec-07 13:04N 34°34' E 135°23'0 0.0
2014-Dec-07 11:16N 34°34' E 135°23'0 0.0
2014-Dec-07 10:04N 34°34' E 135°23'0 0.0
2014-Dec-07 09:04N 34°34' E 135°23'0 0.0
2014-Dec-07 05:27N 34°34' E 135°23'0 0.0
2014-Dec-07 04:09N 34°34' E 135°23'0 0.1
2014-Dec-07 03:33N 34°34' E 135°23'0 0.0
2014-Dec-07 02:15N 34°34' E 135°23'0 0.0
2014-Dec-07 01:33N 34°34' E 135°23'0 0.0
2014-Dec-07 00:03N 34°34' E 135°23'0 0.0
2014-Dec-06 20:15N 34°34' E 135°23'0 0.0
2014-Dec-06 19:33N 34°34' E 135°23'0 0.0
2014-Dec-06 18:27N 34°34' E 135°23'0 0.0
2014-Dec-06 17:15N 34°34' E 135°23'0 0.0
2014-Dec-06 16:33N 34°34' E 135°23'0 0.0
2014-Dec-06 15:15N 34°34' E 135°23'0 0.0
2014-Dec-06 14:27N 34°34' E 135°23'0 0.0
2014-Dec-06 12:33N 34°34' E 135°23'0 0.0
2014-Dec-06 10:27N 34°34' E 135°23'0 0.0
2014-Dec-06 09:27N 34°34' E 135°23'0 0.0
2014-Dec-06 08:21N 34°34' E 135°23'0 0.0
2014-Dec-06 06:27N 34°34' E 135°23'0 0.0
2014-Dec-06 04:33N 34°34' E 135°23'0 0.0
2014-Dec-06 00:33N 34°34' E 135°23'0 0.0
2014-Dec-05 21:27N 34°34' E 135°23'0 0.0
2014-Dec-05 20:09N 34°34' E 135°23'0 0.0
2014-Dec-05 19:09N 34°34' E 135°23'0 0.0
2014-Dec-05 18:27N 34°34' E 135°23'0 0.0
2014-Dec-05 13:27N 34°34' E 135°23'0 0.0
2014-Dec-05 12:27N 34°34' E 135°23'0 0.0
2014-Dec-05 11:21N 34°34' E 135°23'1 0.1
2014-Dec-05 07:33N 34°34' E 135°23'1 0.3
2014-Dec-05 03:33N 34°32' E 135°22'1 0.3
2014-Dec-05 01:07N 34°32' E 135°21'0 0.0
2014-Dec-05 00:19N 34°32' E 135°21'0 0.0
2014-Dec-04 22:31N 34°32' E 135°21'6 6.7
2014-Dec-04 21:33N 34°34' E 135°14'9 8.5
2014-Dec-04 20:34N 34°36' E 135°03'6 5.8
2014-Dec-04 19:33N 34°36' E 134°56'  
2014-Nov-29 16:24N 33°58' E 130°41'  
Track history (hours):
 
Tides and Currents Weather Stations Pressure Air Temp Water Temp Dewpoint Dewpoint Depression Visibility Wind Speed Wind Dir Waves Ship Positions

Sky Ever

Last reported at 2014-Dec-08 12:08 UTC. Time now 2014-Dec-20 11:34 UTC.
Position N 34°36' E 134°54'.
Warning: this ship's position is 11 days out of date.

Length 76 m; draft 3.6 m.

Type: Cargo ship. MMSI: 441751000.

Date/timePositionNaut miles runAvg speedWind from/ knotsBaromVisibWave heightAir tempDewpointWater temp
2014-Dec-08 12:08N 34°36' E 134°54'610.3
2014-Dec-08 11:33N 34°37' E 135°01'10 9.7
2014-Dec-08 10:33N 34°35' E 135°13'10 9.3
2014-Dec-08 09:31N 34°33' E 135°24'2 0.4
2014-Dec-08 04:32N 34°34' E 135°26'0 0.1
2014-Dec-08 03:23N 34°33' E 135°26'3 2.7
2014-Dec-08 02:22N 34°34' E 135°23'0 0.0
2014-Dec-08 01:28N 34°34' E 135°23'0 0.0
2014-Dec-08 00:28N 34°34' E 135°23'0 0.0
2014-Dec-07 23:28N 34°34' E 135°23'0 0.0
2014-Dec-07 21:16N 34°34' E 135°23'0 0.1
2014-Dec-07 20:22N 34°34' E 135°23'0 0.0
2014-Dec-07 18:16N 34°34' E 135°23'0 0.0
2014-Dec-07 17:10N 34°34' E 135°23'0 0.0
2014-Dec-07 16:28N 34°34' E 135°23'0 0.0
2014-Dec-07 15:28N 34°34' E 135°23'0 0.0
2014-Dec-07 14:22N 34°34' E 135°23'0 0.0
2014-Dec-07 13:04N 34°34' E 135°23'0 0.0
2014-Dec-07 11:16N 34°34' E 135°23'0 0.0
2014-Dec-07 10:04N 34°34' E 135°23'0 0.0
2014-Dec-07 09:04N 34°34' E 135°23'0 0.0
2014-Dec-07 05:27N 34°34' E 135°23'0 0.0
2014-Dec-07 04:09N 34°34' E 135°23'0 0.1
2014-Dec-07 03:33N 34°34' E 135°23'0 0.0
2014-Dec-07 02:15N 34°34' E 135°23'0 0.0
2014-Dec-07 01:33N 34°34' E 135°23'0 0.0
2014-Dec-07 00:03N 34°34' E 135°23'0 0.0
2014-Dec-06 20:15N 34°34' E 135°23'0 0.0
2014-Dec-06 19:33N 34°34' E 135°23'0 0.0
2014-Dec-06 18:27N 34°34' E 135°23'0 0.0
2014-Dec-06 17:15N 34°34' E 135°23'0 0.0
2014-Dec-06 16:33N 34°34' E 135°23'0 0.0
2014-Dec-06 15:15N 34°34' E 135°23'0 0.0
2014-Dec-06 14:27N 34°34' E 135°23'0 0.0
2014-Dec-06 12:33N 34°34' E 135°23'0 0.0
2014-Dec-06 10:27N 34°34' E 135°23'0 0.0
2014-Dec-06 09:27N 34°34' E 135°23'0 0.0
2014-Dec-06 08:21N 34°34' E 135°23'0 0.0
2014-Dec-06 06:27N 34°34' E 135°23'0 0.0
2014-Dec-06 04:33N 34°34' E 135°23'0 0.0
2014-Dec-06 00:33N 34°34' E 135°23'0 0.0
2014-Dec-05 21:27N 34°34' E 135°23'0 0.0
2014-Dec-05 20:09N 34°34' E 135°23'0 0.0
2014-Dec-05 19:09N 34°34' E 135°23'0 0.0
2014-Dec-05 18:27N 34°34' E 135°23'0 0.0
2014-Dec-05 13:27N 34°34' E 135°23'0 0.0
2014-Dec-05 12:27N 34°34' E 135°23'0 0.0
2014-Dec-05 11:21N 34°34' E 135°23'1 0.1
2014-Dec-05 07:33N 34°34' E 135°23'1 0.3
2014-Dec-05 03:33N 34°32' E 135°22'1 0.3
2014-Dec-05 01:07N 34°32' E 135°21'0 0.0
2014-Dec-05 00:19N 34°32' E 135°21'0 0.0
2014-Dec-04 22:31N 34°32' E 135°21'6 6.7
2014-Dec-04 21:33N 34°34' E 135°14'9 8.5
2014-Dec-04 20:34N 34°36' E 135°03'6 5.8
2014-Dec-04 19:33N 34°36' E 134°56'  
2014-Nov-29 16:24N 33°58' E 130°41'  

Dump ship's entire track history